Time;durP1;ratioP1;P1;durP2;ratioP2;P2;SDS_P1;SDS_P2;PMS_P1;PMS_P2;Temp;Humidity;BMP_temperature;BMP_pressure;BME280_temperature;BME280_humidity;BME280_pressure;Samples;Min_cycle;Max_cycle;Signal;HPM_P1;HPM_P2
2021/07/19 00:00:48;;;;;;;574.47;350.05;;;14.70;99.90;;;;;;8294310;28;20034;-63
2021/07/19 00:04:49;;;;;;;604.65;348.48;;;14.70;99.90;;;;;;8275056;28;20034;-63
2021/07/19 00:08:50;;;;;;;579.15;346.95;;;14.60;99.90;;;;;;8288394;28;20064;-63
2021/07/19 00:12:51;;;;;;;573.45;343.48;;;14.50;99.90;;;;;;8276574;28;20026;-63
2021/07/19 00:16:52;;;;;;;576.85;343.35;;;14.80;99.90;;;;;;8293875;28;20101;-64
2021/07/19 00:20:53;;;;;;;577.65;342.80;;;14.80;99.90;;;;;;8293962;28;20038;-63
2021/07/19 00:24:54;;;;;;;578.75;347.48;;;14.50;99.90;;;;;;8274655;28;20030;-63
2021/07/19 00:28:54;;;;;;;580.97;347.08;;;14.40;99.90;;;;;;8271619;28;20023;-63
2021/07/19 00:32:55;;;;;;;578.55;346.02;;;14.40;99.90;;;;;;8264626;28;20125;-63
2021/07/19 00:36:56;;;;;;;575.97;346.77;;;14.60;99.90;;;;;;8292962;28;20412;-63
2021/07/19 00:40:56;;;;;;;575.28;346.58;;;14.50;99.90;;;;;;8293482;28;20538;-63
2021/07/19 00:44:57;;;;;;;576.75;346.58;;;14.50;99.90;;;;;;8292049;28;20435;-63
2021/07/19 00:48:58;;;;;;;576.20;351.80;;;14.50;99.90;;;;;;8284668;28;20690;-63
2021/07/19 00:52:59;;;;;;;576.97;350.50;;;14.50;99.90;;;;;;8292761;28;20084;-63
2021/07/19 00:57:02;;;;;;;575.85;349.33;;;14.40;99.90;;;;;;8292465;28;20072;-63
2021/07/19 01:01:05;;;;;;;574.40;347.88;;;14.30;99.90;;;;;;8292605;28;20038;-63
2021/07/19 01:05:08;;;;;;;573.55;346.42;;;14.40;99.90;;;;;;8284177;28;20408;-63
2021/07/19 01:09:08;;;;;;;575.50;345.35;;;14.30;99.90;;;;;;8290199;28;20025;-63
2021/07/19 01:13:09;;;;;;;578.53;345.30;;;14.20;99.90;;;;;;8274693;28;20029;-63
2021/07/19 01:17:10;;;;;;;577.60;344.48;;;14.10;99.90;;;;;;8292374;28;20060;-63
2021/07/19 01:21:32;;;;;;;576.47;347.30;;;14.00;99.90;;;;;;8291975;28;20026;-63
2021/07/19 01:25:41;;;;;;;577.78;344.77;;;13.90;99.90;;;;;;8292133;28;20053;-63
2021/07/19 01:29:43;;;;;;;572.50;340.92;;;13.80;99.90;;;;;;8291900;28;20026;-63
2021/07/19 01:33:47;;;;;;;570.75;343.23;;;14.10;99.90;;;;;;8292333;28;20018;-63
2021/07/19 01:37:49;;;;;;;572.95;343.30;;;14.00;99.90;;;;;;8291577;28;20022;-63
2021/07/19 01:41:52;;;;;;;570.35;337.38;;;13.90;99.90;;;;;;8292008;28;20560;-63
2021/07/19 01:45:53;;;;;;;568.92;335.00;;;13.90;99.90;;;;;;8291816;28;20469;-63
2021/07/19 01:49:54;;;;;;;571.55;334.10;;;13.90;99.90;;;;;;8290672;28;20026;-63
2021/07/19 01:53:57;;;;;;;574.47;334.58;;;14.10;99.90;;;;;;8285601;28;20096;-63
2021/07/19 01:57:58;;;;;;;574.13;335.25;;;13.90;99.90;;;;;;8290535;28;20112;-63
2021/07/19 02:01:59;;;;;;;574.65;337.70;;;13.70;99.90;;;;;;8291223;28;20065;-63
2021/07/19 02:06:02;;;;;;;576.95;337.00;;;13.60;99.90;;;;;;8272683;28;20045;-63
2021/07/19 02:10:09;;;;;;;585.25;337.60;;;13.70;99.90;;;;;;8284630;28;20021;-62
2021/07/19 02:14:11;;;;;;;575.90;334.15;;;13.50;99.90;;;;;;8290310;28;20472;-63
2021/07/19 02:18:13;;;;;;;581.60;336.20;;;13.30;99.90;;;;;;8291236;28;20432;-63
2021/07/19 02:22:14;;;;;;;575.30;331.63;;;13.20;99.90;;;;;;8291278;28;20054;-63
2021/07/19 02:26:15;;;;;;;574.38;328.58;;;13.70;99.90;;;;;;8291083;28;20026;-63
2021/07/19 02:30:20;;;;;;;573.78;328.42;;;13.60;99.90;;;;;;8292513;28;20524;-63
2021/07/19 02:34:21;;;;;;;576.17;334.48;;;13.40;99.90;;;;;;8278851;28;20029;-62
2021/07/19 02:38:23;;;;;;;583.63;355.63;;;13.20;99.90;;;;;;8296892;28;20104;-63
2021/07/19 02:42:24;;;;;;;571.50;325.92;;;13.30;99.90;;;;;;8297056;28;20491;-62
2021/07/19 02:46:28;;;;;;;574.25;325.00;;;13.60;99.90;;;;;;8295476;28;20021;-62
2021/07/19 02:50:30;;;;;;;572.67;325.77;;;13.60;99.90;;;;;;8295368;28;20543;-63
2021/07/19 02:54:32;;;;;;;572.78;328.17;;;13.50;99.90;;;;;;8296567;28;20026;-62
2021/07/19 02:58:32;;;;;;;577.63;332.17;;;13.30;99.90;;;;;;8287987;28;20117;-63
2021/07/19 03:02:35;;;;;;;574.50;330.83;;;13.10;99.90;;;;;;8296621;28;20076;-63
2021/07/19 03:06:40;;;;;;;574.28;330.75;;;13.40;99.90;;;;;;8295703;28;20401;-62
2021/07/19 03:10:43;;;;;;;575.45;329.30;;;13.30;99.90;;;;;;8295928;28;20040;-63
2021/07/19 03:14:44;;;;;;;580.58;330.85;;;13.20;99.90;;;;;;8286747;28;20499;-63
2021/07/19 03:18:45;;;;;;;576.05;332.60;;;13.10;99.90;;;;;;8294022;28;20110;-63
2021/07/19 03:22:48;;;;;;;574.17;332.23;;;13.20;99.90;;;;;;8295597;28;20029;-63
2021/07/19 03:26:50;;;;;;;575.28;334.45;;;13.30;99.90;;;;;;8295043;28;20487;-63
2021/07/19 03:30:52;;;;;;;574.28;331.73;;;13.00;99.90;;;;;;8295232;28;20468;-62
2021/07/19 03:34:54;;;;;;;576.17;328.55;;;13.10;99.90;;;;;;8280417;28;20026;-63
2021/07/19 03:38:55;;;;;;;573.53;325.75;;;13.20;99.90;;;;;;8294846;28;20034;-63
2021/07/19 03:42:58;;;;;;;575.47;327.33;;;13.00;99.90;;;;;;8294866;28;20046;-63
2021/07/19 03:47:00;;;;;;;590.63;343.75;;;13.00;99.90;;;;;;8289780;28;20058;-63
2021/07/19 03:51:01;;;;;;;577.60;325.13;;;13.10;99.90;;;;;;8292354;28;20033;-63
2021/07/19 03:55:02;;;;;;;577.25;331.45;;;13.30;99.90;;;;;;8294436;28;20370;-62
2021/07/19 03:59:03;;;;;;;575.63;329.00;;;13.00;99.90;;;;;;8293999;28;20069;-62
2021/07/19 04:03:19;;;;;;;578.13;321.15;;;13.00;99.90;;;;;;8276728;28;20040;-63
2021/07/19 04:07:20;;;;;;;575.47;322.27;;;12.90;99.90;;;;;;8269507;28;20068;-63
2021/07/19 04:11:20;;;;;;;576.75;321.02;;;13.00;99.90;;;;;;8293708;28;20021;-63
2021/07/19 04:15:22;;;;;;;570.75;322.35;;;13.00;99.90;;;;;;8293495;28;20029;-63
2021/07/19 04:19:25;;;;;;;571.35;324.15;;;12.90;99.90;;;;;;8293548;28;20037;-63
2021/07/19 04:23:26;;;;;;;573.47;325.95;;;12.90;99.90;;;;;;8294020;28;20032;-63
2021/07/19 04:27:26;;;;;;;574.63;328.45;;;13.00;99.90;;;;;;8293618;28;20018;-63
2021/07/19 04:31:27;;;;;;;572.40;326.25;;;13.20;99.90;;;;;;8292375;28;20026;-63
2021/07/19 04:35:28;;;;;;;574.05;331.63;;;13.10;99.90;;;;;;8276919;28;20444;-63
2021/07/19 04:39:28;;;;;;;576.00;331.92;;;13.20;99.90;;;;;;8270453;28;20105;-62
2021/07/19 04:43:29;;;;;;;579.53;335.55;;;13.40;99.90;;;;;;8287543;28;20037;-67
2021/07/19 04:47:30;;;;;;;576.33;333.65;;;13.60;99.90;;;;;;8281233;28;20027;-67
2021/07/19 04:51:30;;;;;;;577.92;331.67;;;13.70;99.90;;;;;;8260384;28;20558;-67
2021/07/19 04:55:32;;;;;;;582.25;342.52;;;14.10;99.90;;;;;;8254991;28;20037;-67
2021/07/19 04:59:38;;;;;;;578.03;337.30;;;14.30;99.90;;;;;;8272753;28;20029;-67
2021/07/19 05:03:43;;;;;;;577.67;345.52;;;14.50;99.90;;;;;;8292019;28;20024;-66
2021/07/19 05:07:44;;;;;;;562.60;348.23;;;14.70;99.90;;;;;;8282153;28;20634;-66
2021/07/19 05:11:49;;;;;;;541.53;360.45;;;14.80;99.90;;;;;;8292563;28;20026;-66
2021/07/19 05:15:50;;;;;;;541.53;367.52;;;15.10;99.90;;;;;;8292370;28;20038;-67
2021/07/19 05:19:51;;;;;;;537.35;373.42;;;15.30;99.90;;;;;;8292438;28;20032;-66
2021/07/19 05:23:52;;;;;;;529.05;385.17;;;15.50;99.90;;;;;;8292044;28;20109;-66
2021/07/19 05:27:58;;;;;;;530.42;395.58;;;15.80;99.90;;;;;;8274279;28;20401;-65
2021/07/19 05:31:59;;;;;;;529.15;392.60;;;16.10;99.90;;;;;;8290198;28;20022;-65
2021/07/19 05:36:00;;;;;;;534.60;411.90;;;16.40;99.90;;;;;;8291266;28;20034;-65
2021/07/19 05:40:00;;;;;;;536.33;407.55;;;16.90;99.90;;;;;;8279380;28;20034;-65
2021/07/19 05:44:01;;;;;;;539.42;423.92;;;17.10;99.90;;;;;;8262386;28;20452;-65
2021/07/19 05:48:01;;;;;;;539.63;424.90;;;17.30;99.90;;;;;;8267405;28;20018;-66
2021/07/19 05:52:02;;;;;;;534.60;429.58;;;17.60;99.90;;;;;;8292290;28;20094;-67
2021/07/19 05:56:03;;;;;;;539.38;449.88;;;17.80;99.90;;;;;;8259392;28;20031;-65
2021/07/19 06:00:07;;;;;;;537.30;452.08;;;18.10;99.90;;;;;;8259498;28;20113;-66
2021/07/19 06:04:07;;;;;;;535.17;455.58;;;18.30;99.90;;;;;;8256526;28;20459;-66
2021/07/19 06:08:08;;;;;;;542.30;457.95;;;18.60;99.90;;;;;;8296412;28;20021;-65
2021/07/19 06:12:08;;;;;;;547.05;484.35;;;18.50;99.90;;;;;;8296923;28;20512;-65
2021/07/19 06:16:09;;;;;;;563.08;492.65;;;18.60;99.90;;;;;;8294557;28;20037;-66
2021/07/19 06:20:12;;;;;;;553.30;493.95;;;18.90;99.90;;;;;;8297327;28;20492;-61
2021/07/19 06:24:13;;;;;;;559.92;500.52;;;19.10;99.90;;;;;;8280017;28;20112;-62
2021/07/19 06:28:13;;;;;;;580.70;521.53;;;19.40;99.90;;;;;;8279208;28;20034;-63
2021/07/19 06:32:14;;;;;;;587.58;528.30;;;19.60;99.90;;;;;;8296845;28;20022;-62
2021/07/19 06:36:14;;;;;;;578.13;518.40;;;19.80;99.90;;;;;;8296161;28;20057;-62
2021/07/19 06:40:15;;;;;;;599.00;539.25;;;19.90;99.90;;;;;;8295084;28;20080;-62
2021/07/19 06:44:15;;;;;;;617.63;557.72;;;20.20;99.90;;;;;;8297367;28;20033;-62
2021/07/19 06:48:17;;;;;;;620.83;561.10;;;20.50;99.90;;;;;;8296627;28;20022;-63
2021/07/19 06:52:18;;;;;;;628.58;568.45;;;20.70;99.90;;;;;;8296437;28;20083;-63
2021/07/19 06:56:18;;;;;;;625.88;565.83;;;20.80;99.90;;;;;;8295995;28;20026;-62
2021/07/19 07:00:19;;;;;;;651.75;591.17;;;21.10;99.90;;;;;;8292750;28;20065;-62
2021/07/19 07:04:20;;;;;;;660.58;599.25;;;21.50;99.90;;;;;;8295810;28;20048;-63
2021/07/19 07:08:20;;;;;;;668.67;607.53;;;21.50;99.90;;;;;;8295696;28;20511;-62
2021/07/19 07:12:21;;;;;;;673.72;613.05;;;21.70;99.90;;;;;;8295151;28;20105;-62
2021/07/19 07:16:22;;;;;;;692.85;631.50;;;21.90;99.90;;;;;;8294660;28;20037;-62
2021/07/19 07:20:22;;;;;;;682.03;620.55;;;22.10;99.90;;;;;;8295420;28;20030;-62
2021/07/19 07:24:23;;;;;;;696.65;635.50;;;22.30;99.90;;;;;;8295496;28;20527;-63
2021/07/19 07:28:24;;;;;;;680.05;618.67;;;22.40;99.90;;;;;;8295215;28;20043;-62
2021/07/19 07:32:24;;;;;;;695.35;634.05;;;22.10;99.90;;;;;;8294725;28;20030;-62
2021/07/19 07:36:26;;;;;;;691.78;631.33;;;22.30;99.90;;;;;;8293909;28;20164;-62
2021/07/19 07:40:27;;;;;;;702.55;641.78;;;22.50;99.90;;;;;;8294270;28;20036;-62
2021/07/19 07:44:28;;;;;;;700.13;640.03;;;22.70;99.90;;;;;;8294327;28;20037;-62
2021/07/19 07:48:29;;;;;;;719.10;658.22;;;22.80;99.90;;;;;;8265027;28;20025;-63
2021/07/19 07:52:30;;;;;;;723.35;662.22;;;23.00;99.90;;;;;;8293541;28;20018;-62
2021/07/19 07:56:30;;;;;;;717.30;655.15;;;23.20;99.90;;;;;;8292759;28;20038;-62
2021/07/19 08:00:31;;;;;;;734.25;672.20;;;23.40;99.90;;;;;;8292443;28;20042;-63
2021/07/19 08:04:33;;;;;;;739.40;677.67;;;23.50;99.90;;;;;;8291709;28;20079;-63
2021/07/19 08:08:33;;;;;;;740.63;678.88;;;23.70;99.90;;;;;;8290228;28;20021;-63
2021/07/19 08:12:34;;;;;;;749.38;687.22;;;23.90;99.90;;;;;;8293270;28;20014;-63
2021/07/19 08:16:36;;;;;;;754.50;691.50;;;24.00;99.90;;;;;;8293026;28;20105;-64
2021/07/19 08:20:37;;;;;;;761.45;699.05;;;24.30;99.90;;;;;;8292720;28;20026;-63
2021/07/19 08:24:38;;;;;;;754.97;692.85;;;24.30;99.90;;;;;;8291744;28;20396;-63
2021/07/19 08:28:38;;;;;;;749.85;687.40;;;24.40;99.90;;;;;;8274585;28;20022;-63
2021/07/19 08:32:39;;;;;;;754.00;692.42;;;24.20;99.90;;;;;;8291684;28;20026;-63
2021/07/19 08:36:40;;;;;;;752.28;690.03;;;24.30;99.90;;;;;;8291817;28;20472;-63
2021/07/19 08:40:42;;;;;;;762.95;700.90;;;24.50;99.90;;;;;;8292816;28;20032;-63
2021/07/19 08:44:43;;;;;;;769.50;708.03;;;24.70;99.90;;;;;;8292723;28;20034;-63
2021/07/19 08:48:46;;;;;;;775.20;713.05;;;24.90;99.90;;;;;;8291537;28;20397;-62
2021/07/19 08:52:51;;;;;;;783.20;721.30;;;24.80;99.90;;;;;;8291709;28;20439;-63
2021/07/19 08:56:53;;;;;;;787.42;724.75;;;25.10;99.90;;;;;;8274370;28;20157;-63
2021/07/19 09:00:57;;;;;;;785.72;723.95;;;25.20;99.90;;;;;;8292450;28;20068;-63
2021/07/19 09:04:58;;;;;;;798.58;736.70;;;25.10;99.90;;;;;;8255109;28;20030;-63
2021/07/19 09:09:02;;;;;;;811.67;749.47;;;25.30;99.90;;;;;;8269417;28;20021;-63
2021/07/19 09:13:06;;;;;;;802.42;739.95;;;25.60;99.90;;;;;;8292443;28;20026;-62
2021/07/19 09:17:06;;;;;;;802.25;740.72;;;25.70;99.90;;;;;;8291235;28;20153;-63
2021/07/19 09:21:34;;;;;;;816.05;753.63;;;25.80;99.90;;;;;;8291779;28;20030;-63
2021/07/19 09:25:34;;;;;;;816.38;753.58;;;26.10;99.90;;;;;;8290846;28;20030;-62
2021/07/19 09:29:37;;;;;;;812.50;750.20;;;26.20;99.90;;;;;;8291629;28;20423;-63
2021/07/19 09:33:39;;;;;;;831.60;768.53;;;26.20;99.90;;;;;;8291837;28;20502;-63
2021/07/19 09:37:40;;;;;;;823.30;761.00;;;26.20;99.90;;;;;;8290706;28;20026;-63
2021/07/19 09:41:41;;;;;;;820.33;758.05;;;26.40;99.90;;;;;;8296047;28;20113;-62
2021/07/19 09:45:42;;;;;;;812.72;750.20;;;26.60;99.90;;;;;;8277735;28;20038;-63
2021/07/19 09:49:43;;;;;;;830.08;767.05;;;26.50;99.90;;;;;;8282178;28;20026;-63
2021/07/19 09:53:44;;;;;;;836.85;773.13;;;26.80;99.90;;;;;;8297127;28;20507;-63
2021/07/19 09:57:55;;;;;;;850.45;787.38;;;27.20;99.90;;;;;;8295307;28;20030;-62
2021/07/19 10:01:56;;;;;;;853.67;790.00;;;27.20;99.90;;;;;;8277936;28;20038;-63
2021/07/19 10:06:07;;;;;;;851.78;788.33;;;27.40;99.90;;;;;;8297439;28;20064;-62
2021/07/19 10:10:10;;;;;;;856.92;794.20;;;27.40;99.90;;;;;;8297734;28;20036;-62
2021/07/19 10:14:10;;;;;;;854.28;791.85;;;27.40;99.90;;;;;;8298194;28;20554;-62
2021/07/19 10:18:14;;;;;;;863.75;800.83;;;27.50;99.90;;;;;;8281048;28;20018;-62
2021/07/19 10:22:14;;;;;;;867.20;803.88;;;27.90;99.90;;;;;;8295618;28;20105;-63
2021/07/19 10:26:17;;;;;;;872.22;809.20;;;28.20;99.90;;;;;;8296015;28;20484;-63
2021/07/19 10:30:17;;;;;;;873.75;810.22;;;28.00;99.90;;;;;;8292997;28;20030;-63
2021/07/19 10:34:19;;;;;;;864.05;800.78;;;27.50;99.90;;;;;;8287646;28;20042;-63
2021/07/19 10:38:26;;;;;;;854.40;792.47;;;27.50;99.90;;;;;;8295267;28;20136;-63
2021/07/19 10:42:43;;;;;;;844.03;783.08;;;27.50;99.90;;;;;;8295085;28;20389;-63
2021/07/19 10:46:44;;;;;;;854.55;792.78;;;27.50;99.90;;;;;;8294223;28;20061;-70
2021/07/19 10:50:45;;;;;;;872.80;810.38;;;27.90;99.90;;;;;;8275786;28;20022;-70
2021/07/19 10:54:49;;;;;;;879.75;817.20;;;28.60;99.90;;;;;;8295906;28;20492;-70
2021/07/19 10:58:50;;;;;;;881.78;819.08;;;28.50;99.90;;;;;;8292170;28;20034;-70
2021/07/19 11:03:04;;;;;;;877.67;815.67;;;28.70;99.90;;;;;;8277643;28;20473;-69
2021/07/19 11:07:11;;;;;;;870.33;809.03;;;28.90;99.90;;;;;;8294770;28;20428;-69
2021/07/19 11:11:12;;;;;;;864.83;804.33;;;28.70;99.90;;;;;;8294290;28;20532;-69
2021/07/19 11:15:13;;;;;;;870.85;810.05;;;28.90;99.90;;;;;;8294111;28;20029;-63
2021/07/19 11:19:14;;;;;;;876.13;815.47;;;29.40;99.90;;;;;;8292871;28;20587;-63
2021/07/19 11:23:29;;;;;;;886.20;823.97;;;29.70;99.90;;;;;;8292603;28;20029;-63
2021/07/19 11:27:35;;;;;;;872.45;811.38;;;29.90;99.90;;;;;;8290157;28;20040;-63
2021/07/19 11:31:35;;;;;;;882.10;820.72;;;30.40;99.90;;;;;;8282957;28;20037;-64
2021/07/19 11:35:41;;;;;;;890.38;828.53;;;31.90;95.20;;;;;;8290594;28;20393;-63
2021/07/19 11:39:47;;;;;;;867.33;806.70;;;34.60;91.80;;;;;;8287864;28;20033;-63
2021/07/19 11:43:49;;;;;;;875.35;813.67;;;36.80;74.10;;;;;;8274649;28;20621;-63
2021/07/19 11:47:55;;;;;;;793.10;736.13;;;38.30;66.90;;;;;;8294517;28;20034;-63
2021/07/19 11:51:56;;;;;;;819.95;760.60;;;38.30;58.50;;;;;;8273905;28;20104;-63
2021/07/19 11:56:03;;;;;;;726.90;673.35;;;38.10;56.00;;;;;;8275850;28;20065;-63
2021/07/19 12:00:04;;;;;;;767.35;710.25;;;39.70;54.20;;;;;;8290184;28;20049;-63
2021/07/19 12:04:06;;;;;;;714.70;662.20;;;40.10;51.00;;;;;;8271703;28;20025;-64
2021/07/19 12:08:08;;;;;;;712.30;659.92;;;39.70;48.60;;;;;;8274018;28;20026;-63
2021/07/19 12:12:11;;;;;;;727.50;673.90;;;38.90;50.30;;;;;;8272442;28;20460;-64
2021/07/19 12:16:14;;;;;;;612.97;568.08;;;37.30;55.70;;;;;;8291586;28;20196;-64
2021/07/19 12:20:20;;;;;;;648.33;601.55;;;35.30;60.00;;;;;;8292967;28;20049;-64
2021/07/19 12:24:25;;;;;;;695.25;644.70;;;34.70;59.80;;;;;;8293145;28;20488;-64
2021/07/19 12:28:26;;;;;;;720.33;667.95;;;34.70;60.00;;;;;;8293096;28;20404;-65
2021/07/19 12:32:26;;;;;;;769.22;714.08;;;34.70;54.00;;;;;;8284437;28;20029;-64
2021/07/19 12:36:27;;;;;;;798.17;740.95;;;33.70;56.00;;;;;;8292167;28;20037;-64
2021/07/19 12:40:28;;;;;;;690.92;641.22;;;34.10;62.70;;;;;;8291537;28;20112;-64
2021/07/19 12:44:30;;;;;;;715.90;664.88;;;33.70;59.80;;;;;;8292091;28;20026;-62
2021/07/19 12:48:31;;;;;;;776.65;721.33;;;32.70;61.90;;;;;;8292255;28;20014;-63
2021/07/19 12:52:35;;;;;;;850.40;789.83;;;32.60;60.20;;;;;;8272673;28;20033;-62
2021/07/19 12:56:40;;;;;;;848.00;786.08;;;34.40;57.80;;;;;;8295932;22;21227;-63
2021/07/19 13:00:40;;;;;;;811.08;752.05;;;38.40;56.30;;;;;;8297859;28;20029;-63
2021/07/19 13:04:41;;;;;;;764.85;707.80;;;41.10;49.50;;;;;;8277547;28;20393;-63
2021/07/19 13:08:41;;;;;;;737.00;680.47;;;43.80;43.20;;;;;;8257999;28;20034;-64
2021/07/19 13:12:53;;;;;;;727.55;671.63;;;45.00;40.00;;;;;;8279866;28;20121;-64
2021/07/19 13:16:59;;;;;;;706.63;651.78;;;44.00;38.10;;;;;;8264387;28;20037;-64
2021/07/19 13:21:05;;;;;;;767.17;706.63;;;45.40;35.60;;;;;;8275156;28;20089;-64
2021/07/19 13:25:18;;;;;;;790.55;729.38;;;45.90;33.80;;;;;;8277178;28;20038;-64
2021/07/19 13:29:27;;;;;;;903.58;834.28;;;44.00;36.90;;;;;;8281254;28;20374;-65
2021/07/19 13:33:28;;;;;;;903.22;835.20;;;46.20;34.30;;;;;;8284027;28;20022;-64
2021/07/19 13:37:30;;;;;;;922.17;853.75;;;45.00;34.50;;;;;;8288822;28;20042;-64
2021/07/19 13:41:30;;;;;;;998.25;925.60;;;44.40;33.80;;;;;;8275818;28;20045;-64
2021/07/19 13:45:31;;;;;;;976.08;904.95;;;43.60;36.50;;;;;;8275262;28;20052;-65
2021/07/19 13:49:33;;;;;;;890.70;824.00;;;44.30;37.30;;;;;;8273131;28;20030;-65
2021/07/19 13:53:34;;;;;;;828.65;764.83;;;45.40;34.00;;;;;;8270438;28;20077;-65
2021/07/19 13:57:35;;;;;;;993.80;918.75;;;47.30;32.90;;;;;;8274456;28;20030;-65
2021/07/19 14:01:36;;;;;;;989.55;915.70;;;45.90;34.30;;;;;;8273152;28;20038;-65
2021/07/19 14:05:36;;;;;;;847.72;781.70;;;44.80;34.20;;;;;;8255264;28;20100;-65
2021/07/19 14:09:37;;;;;;;794.40;731.70;;;47.40;32.90;;;;;;8272724;28;20025;-65
2021/07/19 14:13:37;;;;;;;750.85;691.30;;;49.20;29.30;;;;;;8261661;28;20026;-65
2021/07/19 14:17:38;;;;;;;912.53;842.55;;;48.10;30.00;;;;;;8263898;28;20176;-64
2021/07/19 14:21:39;;;;;;;1085.85;996.90;;;45.20;29.20;;;;;;8276179;28;20030;-65
2021/07/19 14:25:40;;;;;;;969.50;895.95;;;46.30;31.70;;;;;;8269483;28;20061;-65
2021/07/19 14:29:40;;;;;;;911.88;841.25;;;47.10;31.70;;;;;;8267298;28;20018;-65
2021/07/19 14:33:41;;;;;;;749.72;689.92;;;48.90;30.00;;;;;;8296193;28;20037;-65
2021/07/19 14:37:43;;;;;;;1141.20;999.90;;;49.50;29.50;;;;;;8290608;28;20022;-65
2021/07/19 14:41:44;;;;;;;1190.00;999.90;;;47.00;29.30;;;;;;8296594;28;20033;-65
2021/07/19 14:45:44;;;;;;;1138.93;999.90;;;42.10;34.40;;;;;;8295887;28;20034;-65
2021/07/19 14:49:45;;;;;;;763.35;704.63;;;39.20;41.20;;;;;;8294998;28;20049;-64
2021/07/19 14:53:45;;;;;;;934.60;865.83;;;37.90;43.70;;;;;;8285902;28;20030;-64
2021/07/19 14:57:46;;;;;;;1084.47;999.72;;;36.20;46.00;;;;;;8276075;28;20042;-64
2021/07/19 15:01:47;;;;;;;1075.93;991.58;;;34.90;48.50;;;;;;8276377;28;20034;-63
2021/07/19 15:05:47;;;;;;;1033.63;952.42;;;33.80;52.00;;;;;;8285359;28;20096;-64
2021/07/19 15:09:48;;;;;;;1026.25;944.30;;;32.60;54.00;;;;;;8277089;28;20085;-64
2021/07/19 15:13:48;;;;;;;1016.42;935.13;;;31.50;56.60;;;;;;8287658;28;20041;-63
2021/07/19 15:17:49;;;;;;;991.78;922.65;;;31.20;57.50;;;;;;8259934;28;20026;-64
2021/07/19 15:21:50;;;;;;;1025.38;953.00;;;34.60;54.40;;;;;;8259909;28;20034;-65
2021/07/19 15:25:51;;;;;;;1109.70;999.90;;;37.60;46.90;;;;;;8282482;28;20042;-64
2021/07/19 15:29:52;;;;;;;1091.40;999.90;;;40.80;42.70;;;;;;8286140;28;20099;-65
2021/07/19 15:33:52;;;;;;;1092.18;999.90;;;40.00;39.00;;;;;;8283683;28;20027;-65
2021/07/19 15:37:53;;;;;;;1032.85;953.47;;;36.10;46.00;;;;;;8276880;28;20042;-63
2021/07/19 15:41:55;;;;;;;1009.17;930.17;;;33.30;50.30;;;;;;8277184;28;20057;-64
2021/07/19 15:45:55;;;;;;;1016.17;936.03;;;32.30;54.80;;;;;;8276268;28;20058;-64
2021/07/19 15:49:56;;;;;;;1075.05;991.25;;;35.30;50.90;;;;;;8277349;28;20030;-65
2021/07/19 15:53:57;;;;;;;1110.55;999.90;;;38.70;43.60;;;;;;8279536;28;20022;-65
2021/07/19 15:57:58;;;;;;;1105.57;999.90;;;40.40;41.10;;;;;;8284930;28;20045;-65
2021/07/19 16:01:58;;;;;;;1101.75;999.90;;;38.10;43.90;;;;;;8280665;28;20034;-65
2021/07/19 16:05:59;;;;;;;1092.90;999.90;;;36.10;48.60;;;;;;8266857;28;20045;-65
2021/07/19 16:09:59;;;;;;;1135.18;999.90;;;38.50;47.00;;;;;;8257003;28;20060;-65
2021/07/19 16:14:00;;;;;;;1106.63;999.90;;;38.50;45.60;;;;;;8277070;28;20053;-65
2021/07/19 16:18:01;;;;;;;1042.90;962.15;;;36.40;48.60;;;;;;8276374;28;20037;-65
2021/07/19 16:22:01;;;;;;;1047.70;966.80;;;34.50;53.50;;;;;;8259570;28;20496;-64
2021/07/19 16:26:02;;;;;;;1030.78;949.55;;;33.40;55.30;;;;;;8279145;28;20126;-65
2021/07/19 16:30:06;;;;;;;1046.72;964.15;;;32.90;57.00;;;;;;8276971;28;20489;-65
2021/07/19 16:34:07;;;;;;;1019.85;938.70;;;32.20;58.20;;;;;;8276948;28;20112;-65
2021/07/19 16:38:07;;;;;;;1006.10;927.05;;;34.70;55.50;;;;;;8279764;28;20030;-64
2021/07/19 16:42:08;;;;;;;1009.95;931.47;;;36.20;50.10;;;;;;8292120;28;20022;-64
2021/07/19 16:46:08;;;;;;;1022.28;943.45;;;37.10;48.30;;;;;;8292509;28;20028;-64
2021/07/19 16:50:10;;;;;;;1151.57;999.90;;;38.90;45.50;;;;;;8292443;28;20061;-64
2021/07/19 16:54:10;;;;;;;1099.90;999.90;;;40.00;43.70;;;;;;8285098;28;20411;-64
2021/07/19 16:58:11;;;;;;;1114.40;999.90;;;41.60;42.10;;;;;;8274112;28;20034;-64
2021/07/19 17:02:11;;;;;;;1107.72;999.90;;;41.60;41.20;;;;;;8292720;28;20030;-64
2021/07/19 17:06:12;;;;;;;1088.90;999.28;;;39.60;42.90;;;;;;8292144;28;20030;-64
2021/07/19 17:10:13;;;;;;;1080.57;995.88;;;36.40;48.60;;;;;;8281640;28;20670;-64
2021/07/19 17:14:13;;;;;;;1047.97;965.55;;;34.30;50.30;;;;;;8289765;28;20503;-64
2021/07/19 17:18:15;;;;;;;1029.32;947.47;;;32.10;55.30;;;;;;8291842;28;20034;-63
2021/07/19 17:22:16;;;;;;;1164.47;999.90;;;30.30;58.60;;;;;;8274666;28;20124;-63
2021/07/19 17:26:16;;;;;;;996.53;915.85;;;29.00;64.60;;;;;;8274569;28;20637;-63
2021/07/19 17:30:18;;;;;;;946.72;868.53;;;28.50;68.40;;;;;;8274939;28;20088;-63
2021/07/19 17:34:18;;;;;;;922.80;845.78;;;27.90;69.40;;;;;;8292276;28;20090;-63
2021/07/19 17:38:25;;;;;;;903.30;826.22;;;27.40;71.30;;;;;;8292119;28;20109;-63
2021/07/19 17:42:25;;;;;;;892.33;815.83;;;27.20;73.00;;;;;;8292299;28;20033;-63
2021/07/19 17:46:27;;;;;;;874.22;798.13;;;27.00;75.90;;;;;;8290930;28;20113;-63
2021/07/19 17:50:29;;;;;;;867.33;792.10;;;27.00;78.30;;;;;;8283595;28;20033;-63
2021/07/19 17:54:29;;;;;;;861.03;785.72;;;26.90;79.40;;;;;;8272543;28;20028;-63
2021/07/19 17:58:30;;;;;;;850.47;775.67;;;26.70;78.00;;;;;;8274436;28;20035;-63
2021/07/19 18:02:30;;;;;;;840.45;765.92;;;26.50;82.40;;;;;;8283255;28;20037;-64
2021/07/19 18:06:32;;;;;;;824.38;750.38;;;26.30;83.20;;;;;;8275817;28;20045;-64
2021/07/19 18:10:33;;;;;;;839.28;766.22;;;26.40;84.90;;;;;;8265329;28;20105;-63
2021/07/19 18:14:34;;;;;;;830.97;757.80;;;27.20;81.70;;;;;;8265362;28;20089;-65
2021/07/19 18:18:34;;;;;;;834.63;763.25;;;26.60;82.20;;;;;;8271726;28;20396;-64
2021/07/19 18:22:44;;;;;;;840.75;766.33;;;26.10;85.10;;;;;;8294730;28;20036;-64
2021/07/19 18:30:51;;;;;;;832.00;756.78;;;25.30;92.10;;;;;;8294806;28;20018;-64
2021/07/19 18:34:54;;;;;;;743.83;673.72;;;24.90;92.50;;;;;;8269934;28;20436;-65
2021/07/19 18:38:54;;;;;;;726.58;656.58;;;24.40;96.00;;;;;;8275156;28;20094;-64
2021/07/19 18:42:55;;;;;;;760.03;688.72;;;24.20;99.10;;;;;;8295559;28;20476;-64
2021/07/19 18:46:58;;;;;;;769.72;698.38;;;24.20;99.20;;;;;;8282480;28;20025;-64
2021/07/19 18:50:59;;;;;;;737.20;667.03;;;24.10;99.90;;;;;;8262444;28;20022;-64
2021/07/19 18:55:00;;;;;;;766.72;694.10;;;24.10;99.90;;;;;;8281832;28;20052;-64
2021/07/19 18:59:01;;;;;;;721.63;651.05;;;23.90;99.90;;;;;;8281036;28;20104;-64
2021/07/19 19:03:02;;;;;;;664.10;595.97;;;23.50;99.90;;;;;;8258635;28;20679;-64
2021/07/19 19:07:03;;;;;;;685.90;616.88;;;23.30;99.90;;;;;;8283382;28;20767;-64
2021/07/19 19:11:07;;;;;;;741.80;669.78;;;23.20;99.90;;;;;;8288575;28;20084;-63
2021/07/19 19:15:17;;;;;;;594.08;528.85;;;22.90;99.90;;;;;;8290316;28;20045;-70
2021/07/19 19:19:17;;;;;;;587.17;522.40;;;22.60;99.90;;;;;;8282143;28;20034;-70
2021/07/19 19:23:18;;;;;;;618.63;552.63;;;22.30;99.90;;;;;;8265865;28;20076;-71
2021/07/19 19:27:18;;;;;;;588.30;522.75;;;22.10;99.90;;;;;;8294068;28;20026;-69
2021/07/19 19:31:23;;;;;;;582.47;508.42;;;21.90;99.90;;;;;;8279413;28;20038;-69
2021/07/19 19:35:24;;;;;;;594.47;528.83;;;21.90;99.90;;;;;;8282607;28;20022;-64
2021/07/19 19:39:24;;;;;;;576.58;489.27;;;21.70;99.90;;;;;;8273631;28;20416;-64
2021/07/19 19:43:27;;;;;;;588.95;515.85;;;21.70;99.90;;;;;;8278355;28;20158;-64
2021/07/19 19:47:28;;;;;;;595.53;527.42;;;21.60;99.90;;;;;;8277891;28;20038;-64
2021/07/19 19:51:29;;;;;;;585.80;501.55;;;21.50;99.90;;;;;;8279545;28;20032;-64
2021/07/19 19:55:31;;;;;;;631.05;563.25;;;21.50;99.90;;;;;;8279484;28;20030;-64